Terminal Aerodrome Forecast
Issued by NWS

Home | Current Version | Previous Version | Text Only | Print | Product List | Glossary On
Versions: 1 2 3 4 5 6 7 8 9 10 11 12 13 14 15 16 17 18 19 20 21 22 23 24 25 26 27
000
FTUS44 KLUB 230524
TAFCDS
TAF
KCDS 230524Z 2306/2406 VRB06KT P6SM BKN100 OVC200
     FM230900 03008KT 5SM BR SCT015 OVC025
     FM231700 07008KT P6SM SCT025 SCT050 SCT250=

USA.gov is the U.S. government's official web portal to all federal, state and local government web resources and services.